sensor_id;sensor_type;location;lat;lon;timestamp;pressure;altitude;pressure_sealevel;temperature;humidity
967;BME280;56108;48.730;9.304;2023-03-19T00:02:01;97281.91;;;10.19;77.48
967;BME280;56108;48.730;9.304;2023-03-19T00:04:21;97286.75;;;10.01;77.90
967;BME280;56108;48.730;9.304;2023-03-19T00:06:30;97297.63;;;9.98;78.32
967;BME280;56108;48.730;9.304;2023-03-19T00:08:38;97284.84;;;9.90;78.91
967;BME280;56108;48.730;9.304;2023-03-19T00:10:46;97282.00;;;9.81;80.61
967;BME280;56108;48.730;9.304;2023-03-19T00:12:54;97285.34;;;9.72;81.39
967;BME280;56108;48.730;9.304;2023-03-19T00:15:02;97279.06;;;9.73;81.57
967;BME280;56108;48.730;9.304;2023-03-19T00:17:14;97285.88;;;10.01;79.82
967;BME280;56108;48.730;9.304;2023-03-19T00:19:21;97286.59;;;10.15;79.14
967;BME280;56108;48.730;9.304;2023-03-19T00:21:30;97282.69;;;10.08;79.47
967;BME280;56108;48.730;9.304;2023-03-19T00:23:38;97290.56;;;10.10;79.25
967;BME280;56108;48.730;9.304;2023-03-19T00:25:47;97286.53;;;10.04;79.73
967;BME280;56108;48.730;9.304;2023-03-19T00:27:55;97281.22;;;10.04;80.29
967;BME280;56108;48.730;9.304;2023-03-19T00:30:05;97292.81;;;10.03;80.65
967;BME280;56108;48.730;9.304;2023-03-19T00:32:16;97293.16;;;9.86;81.91
967;BME280;56108;48.730;9.304;2023-03-19T00:34:24;97289.38;;;9.77;83.40
967;BME280;56108;48.730;9.304;2023-03-19T00:36:32;97290.22;;;9.65;83.83
967;BME280;56108;48.730;9.304;2023-03-19T00:38:41;97290.88;;;9.56;84.91
967;BME280;56108;48.730;9.304;2023-03-19T00:40:49;97285.03;;;9.51;86.09
967;BME280;56108;48.730;9.304;2023-03-19T00:42:57;97290.88;;;9.56;85.32
967;BME280;56108;48.730;9.304;2023-03-19T00:45:07;97283.09;;;9.65;85.20
967;BME280;56108;48.730;9.304;2023-03-19T00:47:18;97293.41;;;9.57;86.45
967;BME280;56108;48.730;9.304;2023-03-19T00:49:27;97282.69;;;9.72;86.42
967;BME280;56108;48.730;9.304;2023-03-19T00:51:35;97289.66;;;9.85;84.90
967;BME280;56108;48.730;9.304;2023-03-19T00:53:47;97291.88;;;9.91;84.42
967;BME280;56108;48.730;9.304;2023-03-19T00:55:56;97287.94;;;9.97;83.51
967;BME280;56108;48.730;9.304;2023-03-19T00:58:04;97292.91;;;10.02;83.36
967;BME280;56108;48.730;9.304;2023-03-19T01:00:15;97296.97;;;9.94;83.81
967;BME280;56108;48.730;9.304;2023-03-19T01:02:30;97295.94;;;9.84;84.60
967;BME280;56108;48.730;9.304;2023-03-19T01:04:38;97289.38;;;9.77;85.27
967;BME280;56108;48.730;9.304;2023-03-19T01:06:47;97292.25;;;9.61;86.81
967;BME280;56108;48.730;9.304;2023-03-19T01:08:55;97297.69;;;9.47;88.46
967;BME280;56108;48.730;9.304;2023-03-19T01:11:05;97300.13;;;9.50;88.81
967;BME280;56108;48.730;9.304;2023-03-19T01:13:13;97295.44;;;9.54;88.49
967;BME280;56108;48.730;9.304;2023-03-19T01:15:21;97298.84;;;9.56;88.34
967;BME280;56108;48.730;9.304;2023-03-19T01:17:31;97298.63;;;9.46;88.44
967;BME280;56108;48.730;9.304;2023-03-19T01:19:39;97311.38;;;9.41;90.50
967;BME280;56108;48.730;9.304;2023-03-19T01:21:48;97308.31;;;9.47;90.80
967;BME280;56108;48.730;9.304;2023-03-19T01:23:59;97311.59;;;9.38;90.50
967;BME280;56108;48.730;9.304;2023-03-19T01:26:07;97311.06;;;9.33;91.53
967;BME280;56108;48.730;9.304;2023-03-19T01:28:18;97307.88;;;9.28;91.61
967;BME280;56108;48.730;9.304;2023-03-19T01:30:26;97314.47;;;9.35;90.71
967;BME280;56108;48.730;9.304;2023-03-19T01:32:46;97315.09;;;9.26;91.07
967;BME280;56108;48.730;9.304;2023-03-19T01:35:26;97319.66;;;9.24;91.57
967;BME280;56108;48.730;9.304;2023-03-19T01:37:35;97318.59;;;9.39;93.17
967;BME280;56108;48.730;9.304;2023-03-19T01:39:44;97331.78;;;9.40;91.64
967;BME280;56108;48.730;9.304;2023-03-19T01:41:52;97334.53;;;9.39;91.95
967;BME280;56108;48.730;9.304;2023-03-19T01:44:28;97337.53;;;9.34;91.89
967;BME280;56108;48.730;9.304;2023-03-19T01:46:57;97345.78;;;9.17;89.47
967;BME280;56108;48.730;9.304;2023-03-19T01:49:20;97347.81;;;9.13;90.10
967;BME280;56108;48.730;9.304;2023-03-19T01:51:40;97348.13;;;9.09;91.97
967;BME280;56108;48.730;9.304;2023-03-19T01:54:04;97349.91;;;9.08;90.64
967;BME280;56108;48.730;9.304;2023-03-19T01:56:23;97352.56;;;9.08;92.26
967;BME280;56108;48.730;9.304;2023-03-19T01:58:59;97349.34;;;8.91;92.97
967;BME280;56108;48.730;9.304;2023-03-19T02:01:36;97346.75;;;8.76;97.44
967;BME280;56108;48.730;9.304;2023-03-19T02:03:48;97350.56;;;8.72;97.30
967;BME280;56108;48.730;9.304;2023-03-19T02:06:07;97352.28;;;8.86;96.70
967;BME280;56108;48.730;9.304;2023-03-19T02:08:19;97353.06;;;8.88;97.88
967;BME280;56108;48.730;9.304;2023-03-19T02:10:29;97351.38;;;9.00;97.08
967;BME280;56108;48.730;9.304;2023-03-19T02:12:38;97347.84;;;8.86;96.68
967;BME280;56108;48.730;9.304;2023-03-19T02:14:46;97349.75;;;8.97;95.02
967;BME280;56108;48.730;9.304;2023-03-19T02:16:54;97355.53;;;9.17;91.92
967;BME280;56108;48.730;9.304;2023-03-19T02:19:02;97359.06;;;9.17;92.41
967;BME280;56108;48.730;9.304;2023-03-19T02:21:15;97360.97;;;9.15;92.09
967;BME280;56108;48.730;9.304;2023-03-19T02:23:32;97362.31;;;9.08;92.93
967;BME280;56108;48.730;9.304;2023-03-19T02:26:11;97358.50;;;8.99;92.51
967;BME280;56108;48.730;9.304;2023-03-19T02:28:20;97358.63;;;9.10;91.55
967;BME280;56108;48.730;9.304;2023-03-19T02:30:32;97357.78;;;9.10;91.17
967;BME280;56108;48.730;9.304;2023-03-19T02:32:45;97362.56;;;9.18;90.55
967;BME280;56108;48.730;9.304;2023-03-19T02:34:53;97353.75;;;9.17;90.59
967;BME280;56108;48.730;9.304;2023-03-19T02:37:04;97362.13;;;9.24;88.74
967;BME280;56108;48.730;9.304;2023-03-19T02:39:18;97356.97;;;9.35;87.64
967;BME280;56108;48.730;9.304;2023-03-19T02:41:30;97365.66;;;9.37;86.95
967;BME280;56108;48.730;9.304;2023-03-19T02:43:41;97360.91;;;9.42;88.13
967;BME280;56108;48.730;9.304;2023-03-19T02:45:49;97358.53;;;9.37;90.95
967;BME280;56108;48.730;9.304;2023-03-19T02:47:57;97374.59;;;9.36;95.27
967;BME280;56108;48.730;9.304;2023-03-19T02:50:07;97362.66;;;9.16;100.00
967;BME280;56108;48.730;9.304;2023-03-19T02:52:16;97369.97;;;9.12;100.00
967;BME280;56108;48.730;9.304;2023-03-19T02:54:24;97374.59;;;8.96;100.00
967;BME280;56108;48.730;9.304;2023-03-19T02:56:35;97376.84;;;8.89;100.00
967;BME280;56108;48.730;9.304;2023-03-19T02:58:43;97367.75;;;8.67;100.00
967;BME280;56108;48.730;9.304;2023-03-19T03:00:51;97371.63;;;8.61;100.00
967;BME280;56108;48.730;9.304;2023-03-19T03:02:59;97369.44;;;8.68;100.00
967;BME280;56108;48.730;9.304;2023-03-19T03:05:08;97358.97;;;8.79;100.00
967;BME280;56108;48.730;9.304;2023-03-19T03:07:17;97364.69;;;8.73;100.00
967;BME280;56108;48.730;9.304;2023-03-19T03:09:26;97349.81;;;8.70;100.00
967;BME280;56108;48.730;9.304;2023-03-19T03:11:38;97345.09;;;8.88;100.00
967;BME280;56108;48.730;9.304;2023-03-19T03:13:47;97350.72;;;8.83;100.00
967;BME280;56108;48.730;9.304;2023-03-19T03:15:55;97346.13;;;8.85;100.00
967;BME280;56108;48.730;9.304;2023-03-19T03:18:03;97347.84;;;8.59;100.00
967;BME280;56108;48.730;9.304;2023-03-19T03:20:13;97351.44;;;8.46;100.00
967;BME280;56108;48.730;9.304;2023-03-19T03:22:22;97334.00;;;8.42;100.00
967;BME280;56108;48.730;9.304;2023-03-19T03:24:30;97329.06;;;8.35;100.00
967;BME280;56108;48.730;9.304;2023-03-19T03:26:40;97330.06;;;8.20;100.00
967;BME280;56108;48.730;9.304;2023-03-19T03:28:48;97333.03;;;8.01;100.00
967;BME280;56108;48.730;9.304;2023-03-19T03:30:57;97345.53;;;7.99;100.00
967;BME280;56108;48.730;9.304;2023-03-19T03:33:06;97367.47;;;7.87;100.00
967;BME280;56108;48.730;9.304;2023-03-19T03:35:14;97365.31;;;7.79;100.00
967;BME280;56108;48.730;9.304;2023-03-19T03:37:26;97362.28;;;7.71;100.00
967;BME280;56108;48.730;9.304;2023-03-19T03:39:33;97351.03;;;7.68;100.00
967;BME280;56108;48.730;9.304;2023-03-19T03:41:44;97343.16;;;7.66;100.00
967;BME280;56108;48.730;9.304;2023-03-19T03:43:52;97335.78;;;7.85;100.00
967;BME280;56108;48.730;9.304;2023-03-19T03:46:00;97326.31;;;7.81;100.00
967;BME280;56108;48.730;9.304;2023-03-19T03:48:08;97321.31;;;7.77;100.00
967;BME280;56108;48.730;9.304;2023-03-19T03:50:17;97318.94;;;7.72;100.00
967;BME280;56108;48.730;9.304;2023-03-19T03:52:28;97323.31;;;7.59;100.00
967;BME280;56108;48.730;9.304;2023-03-19T03:54:38;97321.63;;;7.58;100.00
967;BME280;56108;48.730;9.304;2023-03-19T03:56:49;97326.41;;;7.51;100.00
967;BME280;56108;48.730;9.304;2023-03-19T03:58:56;97332.09;;;7.45;100.00
967;BME280;56108;48.730;9.304;2023-03-19T04:01:05;97347.53;;;7.53;100.00
967;BME280;56108;48.730;9.304;2023-03-19T04:03:13;97359.66;;;7.57;100.00
967;BME280;56108;48.730;9.304;2023-03-19T04:05:22;97361.50;;;7.55;100.00
967;BME280;56108;48.730;9.304;2023-03-19T04:07:30;97357.16;;;7.54;100.00
967;BME280;56108;48.730;9.304;2023-03-19T04:09:39;97360.09;;;7.49;100.00
967;BME280;56108;48.730;9.304;2023-03-19T04:11:49;97350.19;;;7.53;100.00
967;BME280;56108;48.730;9.304;2023-03-19T04:13:57;97344.22;;;7.49;100.00
967;BME280;56108;48.730;9.304;2023-03-19T04:16:09;97346.00;;;7.49;100.00
967;BME280;56108;48.730;9.304;2023-03-19T04:18:17;97343.81;;;7.55;100.00
967;BME280;56108;48.730;9.304;2023-03-19T04:20:26;97342.22;;;7.67;100.00
967;BME280;56108;48.730;9.304;2023-03-19T04:22:34;97345.81;;;7.66;100.00
967;BME280;56108;48.730;9.304;2023-03-19T04:24:43;97344.22;;;7.64;100.00
967;BME280;56108;48.730;9.304;2023-03-19T04:26:54;97343.56;;;7.60;100.00
967;BME280;56108;48.730;9.304;2023-03-19T04:29:02;97349.41;;;7.65;100.00
967;BME280;56108;48.730;9.304;2023-03-19T04:31:13;97351.88;;;7.68;100.00
967;BME280;56108;48.730;9.304;2023-03-19T04:33:21;97344.59;;;7.57;100.00
967;BME280;56108;48.730;9.304;2023-03-19T04:35:32;97336.72;;;7.56;100.00
967;BME280;56108;48.730;9.304;2023-03-19T04:37:41;97338.91;;;7.49;100.00
967;BME280;56108;48.730;9.304;2023-03-19T04:39:54;97339.19;;;7.45;100.00
967;BME280;56108;48.730;9.304;2023-03-19T04:42:06;97339.19;;;7.45;100.00
967;BME280;56108;48.730;9.304;2023-03-19T04:44:21;97336.72;;;7.56;100.00
967;BME280;56108;48.730;9.304;2023-03-19T04:46:31;97348.28;;;7.55;100.00
967;BME280;56108;48.730;9.304;2023-03-19T04:48:39;97348.38;;;7.53;100.00
967;BME280;56108;48.730;9.304;2023-03-19T04:50:47;97344.59;;;7.57;100.00
967;BME280;56108;48.730;9.304;2023-03-19T04:52:56;97348.56;;;7.65;100.00
967;BME280;56108;48.730;9.304;2023-03-19T04:55:05;97347.50;;;7.67;100.00
967;BME280;56108;48.730;9.304;2023-03-19T04:57:28;97346.38;;;7.71;100.00
967;BME280;56108;48.730;9.304;2023-03-19T04:59:36;97359.84;;;7.68;100.00
967;BME280;56108;48.730;9.304;2023-03-19T05:01:44;97364.63;;;7.76;100.00
967;BME280;56108;48.730;9.304;2023-03-19T05:03:57;97368.25;;;7.75;100.00
967;BME280;56108;48.730;9.304;2023-03-19T05:06:08;97368.25;;;7.75;100.00
967;BME280;56108;48.730;9.304;2023-03-19T05:08:16;97373.53;;;7.75;100.00
967;BME280;56108;48.730;9.304;2023-03-19T05:10:24;97375.44;;;7.73;100.00
967;BME280;56108;48.730;9.304;2023-03-19T05:12:35;97383.28;;;7.74;100.00
967;BME280;56108;48.730;9.304;2023-03-19T05:14:44;97379.50;;;7.78;100.00
967;BME280;56108;48.730;9.304;2023-03-19T05:17:04;97381.94;;;7.81;100.00
967;BME280;56108;48.730;9.304;2023-03-19T05:19:36;97376.09;;;7.76;100.00
967;BME280;56108;48.730;9.304;2023-03-19T05:21:45;97382.34;;;7.75;100.00
967;BME280;56108;48.730;9.304;2023-03-19T05:23:59;97380.34;;;7.79;100.00
967;BME280;56108;48.730;9.304;2023-03-19T05:26:11;97386.03;;;7.73;100.00
967;BME280;56108;48.730;9.304;2023-03-19T05:28:41;97387.06;;;7.70;100.00
967;BME280;56108;48.730;9.304;2023-03-19T05:30:50;97386.88;;;7.73;100.00
967;BME280;56108;48.730;9.304;2023-03-19T05:33:08;97382.63;;;7.71;100.00
967;BME280;56108;48.730;9.304;2023-03-19T05:35:18;97384.97;;;7.75;100.00
967;BME280;56108;48.730;9.304;2023-03-19T05:37:28;97385.66;;;7.79;100.00
967;BME280;56108;48.730;9.304;2023-03-19T05:39:37;97384.03;;;7.76;100.00
967;BME280;56108;48.730;9.304;2023-03-19T05:41:47;97390.00;;;7.80;100.00
967;BME280;56108;48.730;9.304;2023-03-19T05:44:01;97381.09;;;7.81;100.00
967;BME280;56108;48.730;9.304;2023-03-19T05:46:29;97374.28;;;7.77;100.00
967;BME280;56108;48.730;9.304;2023-03-19T05:48:38;97372.69;;;7.74;100.00
967;BME280;56108;48.730;9.304;2023-03-19T05:50:46;97377.22;;;7.72;100.00
967;BME280;56108;48.730;9.304;2023-03-19T05:52:57;97384.31;;;7.72;100.00
967;BME280;56108;48.730;9.304;2023-03-19T05:55:07;97379.28;;;7.67;100.00
967;BME280;56108;48.730;9.304;2023-03-19T05:57:21;97379.22;;;7.69;100.00
967;BME280;56108;48.730;9.304;2023-03-19T05:59:56;97387.91;;;7.85;100.00
967;BME280;56108;48.730;9.304;2023-03-19T06:02:10;97392.84;;;7.91;100.00
967;BME280;56108;48.730;9.304;2023-03-19T06:04:20;97394.25;;;7.82;100.00
967;BME280;56108;48.730;9.304;2023-03-19T06:06:29;97390.75;;;7.82;100.00
967;BME280;56108;48.730;9.304;2023-03-19T06:08:38;97396.53;;;7.74;100.00
967;BME280;56108;48.730;9.304;2023-03-19T06:10:49;97389.72;;;7.70;100.00
967;BME280;56108;48.730;9.304;2023-03-19T06:12:58;97390.09;;;7.78;100.00
967;BME280;56108;48.730;9.304;2023-03-19T06:15:22;97388.38;;;7.77;100.00
967;BME280;56108;48.730;9.304;2023-03-19T06:17:45;97400.31;;;7.70;100.00
967;BME280;56108;48.730;9.304;2023-03-19T06:19:54;97401.84;;;7.74;100.00
967;BME280;56108;48.730;9.304;2023-03-19T06:22:02;97405.16;;;7.78;100.00
967;BME280;56108;48.730;9.304;2023-03-19T06:24:10;97411.56;;;7.88;100.00
967;BME280;56108;48.730;9.304;2023-03-19T06:26:18;97415.84;;;7.91;100.00
967;BME280;56108;48.730;9.304;2023-03-19T06:28:30;97429.34;;;7.86;100.00
967;BME280;56108;48.730;9.304;2023-03-19T06:30:42;97428.34;;;7.89;100.00
967;BME280;56108;48.730;9.304;2023-03-19T06:33:13;97422.56;;;7.96;100.00
967;BME280;56108;48.730;9.304;2023-03-19T06:35:21;97426.16;;;8.09;100.00
967;BME280;56108;48.730;9.304;2023-03-19T06:37:30;97428.31;;;8.17;100.00
967;BME280;56108;48.730;9.304;2023-03-19T06:39:38;97432.28;;;8.24;100.00
967;BME280;56108;48.730;9.304;2023-03-19T06:41:46;97440.16;;;8.26;100.00
967;BME280;56108;48.730;9.304;2023-03-19T06:43:57;97439.94;;;8.29;100.00
967;BME280;56108;48.730;9.304;2023-03-19T06:46:08;97439.31;;;8.25;100.00
967;BME280;56108;48.730;9.304;2023-03-19T06:48:17;97439.75;;;8.32;100.00
967;BME280;56108;48.730;9.304;2023-03-19T06:50:25;97440.50;;;8.34;100.00
967;BME280;56108;48.730;9.304;2023-03-19T06:52:33;97441.34;;;8.34;100.00
967;BME280;56108;48.730;9.304;2023-03-19T06:54:41;97455.47;;;8.49;100.00
967;BME280;56108;48.730;9.304;2023-03-19T06:56:49;97454.91;;;8.44;100.00
967;BME280;56108;48.730;9.304;2023-03-19T06:58:57;97460.03;;;8.47;100.00
967;BME280;56108;48.730;9.304;2023-03-19T07:01:08;97459.66;;;8.53;100.00
967;BME280;56108;48.730;9.304;2023-03-19T07:03:17;97462.75;;;8.60;100.00
967;BME280;56108;48.730;9.304;2023-03-19T07:05:25;97457.94;;;8.67;100.00
967;BME280;56108;48.730;9.304;2023-03-19T07:07:34;97470.00;;;8.85;100.00
967;BME280;56108;48.730;9.304;2023-03-19T07:09:42;97478.22;;;8.95;100.00
967;BME280;56108;48.730;9.304;2023-03-19T07:11:50;97476.88;;;9.02;100.00
967;BME280;56108;48.730;9.304;2023-03-19T07:13:58;97470.06;;;8.98;100.00
967;BME280;56108;48.730;9.304;2023-03-19T07:16:08;97476.31;;;8.97;100.00
967;BME280;56108;48.730;9.304;2023-03-19T07:18:16;97476.78;;;9.03;100.00
967;BME280;56108;48.730;9.304;2023-03-19T07:20:25;97483.78;;;9.04;100.00
967;BME280;56108;48.730;9.304;2023-03-19T07:22:33;97473.44;;;9.14;100.00
967;BME280;56108;48.730;9.304;2023-03-19T07:24:40;97473.66;;;9.24;100.00
967;BME280;56108;48.730;9.304;2023-03-19T07:26:48;97477.31;;;9.35;100.00
967;BME280;56108;48.730;9.304;2023-03-19T07:28:59;97478.72;;;9.41;100.00
967;BME280;56108;48.730;9.304;2023-03-19T07:31:10;97481.31;;;9.55;100.00
967;BME280;56108;48.730;9.304;2023-03-19T07:33:18;97489.88;;;9.46;100.00
967;BME280;56108;48.730;9.304;2023-03-19T07:35:26;97494.13;;;9.49;100.00
967;BME280;56108;48.730;9.304;2023-03-19T07:37:34;97487.00;;;9.49;100.00
967;BME280;56108;48.730;9.304;2023-03-19T07:39:42;97490.88;;;9.58;100.00
967;BME280;56108;48.730;9.304;2023-03-19T07:41:50;97497.81;;;9.73;100.00
967;BME280;56108;48.730;9.304;2023-03-19T07:44:00;97507.16;;;9.66;100.00
967;BME280;56108;48.730;9.304;2023-03-19T07:46:11;97515.63;;;9.58;100.00
967;BME280;56108;48.730;9.304;2023-03-19T07:48:22;97505.22;;;9.55;100.00
967;BME280;56108;48.730;9.304;2023-03-19T07:50:30;97490.31;;;9.53;100.00
967;BME280;56108;48.730;9.304;2023-03-19T07:52:39;97488.94;;;9.47;100.00
967;BME280;56108;48.730;9.304;2023-03-19T07:54:46;97493.94;;;9.64;100.00
967;BME280;56108;48.730;9.304;2023-03-19T07:56:54;97495.34;;;9.70;100.00
967;BME280;56108;48.730;9.304;2023-03-19T07:59:02;97502.38;;;9.97;100.00
967;BME280;56108;48.730;9.304;2023-03-19T08:01:13;97501.53;;;9.96;100.00
967;BME280;56108;48.730;9.304;2023-03-19T08:03:21;97500.03;;;9.79;100.00
967;BME280;56108;48.730;9.304;2023-03-19T08:05:29;97504.22;;;10.09;100.00
967;BME280;56108;48.730;9.304;2023-03-19T08:07:37;97500.25;;;10.02;100.00
967;BME280;56108;48.730;9.304;2023-03-19T08:09:45;97505.47;;;9.90;100.00
967;BME280;56108;48.730;9.304;2023-03-19T08:11:53;97502.59;;;9.81;100.00
967;BME280;56108;48.730;9.304;2023-03-19T08:14:02;97502.81;;;9.90;100.00
967;BME280;56108;48.730;9.304;2023-03-19T08:16:13;97504.97;;;10.11;100.00
967;BME280;56108;48.730;9.304;2023-03-19T08:18:21;97509.53;;;10.22;100.00
967;BME280;56108;48.730;9.304;2023-03-19T08:20:30;97513.00;;;10.24;100.00
967;BME280;56108;48.730;9.304;2023-03-19T08:22:38;97510.94;;;10.27;100.00
967;BME280;56108;48.730;9.304;2023-03-19T08:24:47;97507.13;;;10.31;100.00
967;BME280;56108;48.730;9.304;2023-03-19T08:26:54;97507.31;;;10.03;100.00
967;BME280;56108;48.730;9.304;2023-03-19T08:29:02;97508.16;;;10.16;100.00
967;BME280;56108;48.730;9.304;2023-03-19T08:31:13;97502.00;;;10.28;100.00
967;BME280;56108;48.730;9.304;2023-03-19T08:33:22;97512.00;;;10.50;100.00
967;BME280;56108;48.730;9.304;2023-03-19T08:35:30;97514.19;;;10.69;100.00
967;BME280;56108;48.730;9.304;2023-03-19T08:37:38;97523.03;;;10.82;100.00
967;BME280;56108;48.730;9.304;2023-03-19T08:39:46;97519.47;;;10.94;100.00
967;BME280;56108;48.730;9.304;2023-03-19T08:41:54;97512.25;;;10.96;100.00
967;BME280;56108;48.730;9.304;2023-03-19T08:44:03;97515.13;;;10.93;100.00
967;BME280;56108;48.730;9.304;2023-03-19T08:46:13;97519.91;;;10.88;100.00
967;BME280;56108;48.730;9.304;2023-03-19T08:48:22;97508.53;;;10.86;100.00
967;BME280;56108;48.730;9.304;2023-03-19T08:50:30;97521.22;;;11.19;100.00
967;BME280;56108;48.730;9.304;2023-03-19T08:52:39;97524.00;;;11.18;100.00
967;BME280;56108;48.730;9.304;2023-03-19T08:54:48;97525.03;;;11.28;100.00
967;BME280;56108;48.730;9.304;2023-03-19T08:56:56;97523.94;;;11.07;100.00
967;BME280;56108;48.730;9.304;2023-03-19T08:59:04;97524.66;;;11.09;100.00
967;BME280;56108;48.730;9.304;2023-03-19T09:01:14;97533.28;;;11.12;100.00
967;BME280;56108;48.730;9.304;2023-03-19T09:03:22;97528.13;;;11.22;100.00
967;BME280;56108;48.730;9.304;2023-03-19T09:05:31;97531.09;;;11.30;100.00
967;BME280;56108;48.730;9.304;2023-03-19T09:07:39;97533.59;;;11.44;100.00
967;BME280;56108;48.730;9.304;2023-03-19T09:09:47;97534.03;;;11.38;100.00
967;BME280;56108;48.730;9.304;2023-03-19T09:11:55;97539.31;;;11.75;100.00
967;BME280;56108;48.730;9.304;2023-03-19T09:14:02;97539.59;;;12.18;100.00
967;BME280;56108;48.730;9.304;2023-03-19T09:16:14;97538.16;;;12.37;98.68
967;BME280;56108;48.730;9.304;2023-03-19T09:18:22;97532.97;;;12.69;97.45
967;BME280;56108;48.730;9.304;2023-03-19T09:20:30;97538.53;;;13.11;96.89
967;BME280;56108;48.730;9.304;2023-03-19T09:22:38;97548.19;;;13.45;90.82
967;BME280;56108;48.730;9.304;2023-03-19T09:24:46;97538.34;;;13.46;90.56
967;BME280;56108;48.730;9.304;2023-03-19T09:26:55;97540.00;;;13.26;88.97
967;BME280;56108;48.730;9.304;2023-03-19T09:29:03;97536.56;;;13.13;92.33
967;BME280;56108;48.730;9.304;2023-03-19T09:31:13;97532.59;;;12.96;92.96
967;BME280;56108;48.730;9.304;2023-03-19T09:33:22;97525.53;;;13.28;92.65
967;BME280;56108;48.730;9.304;2023-03-19T09:35:30;97536.16;;;14.04;88.75
967;BME280;56108;48.730;9.304;2023-03-19T09:37:39;97535.16;;;14.16;84.67
967;BME280;56108;48.730;9.304;2023-03-19T09:39:51;97538.84;;;14.67;80.33
967;BME280;56108;48.730;9.304;2023-03-19T09:42:12;97541.47;;;14.78;77.61
967;BME280;56108;48.730;9.304;2023-03-19T09:44:27;97537.88;;;14.98;73.24
967;BME280;56108;48.730;9.304;2023-03-19T09:46:40;97551.97;;;15.50;69.68
967;BME280;56108;48.730;9.304;2023-03-19T09:48:53;97556.56;;;16.27;66.42
967;BME280;56108;48.730;9.304;2023-03-19T09:51:05;97565.19;;;17.34;61.18
967;BME280;56108;48.730;9.304;2023-03-19T09:53:24;97574.50;;;17.40;58.01
967;BME280;56108;48.730;9.304;2023-03-19T09:55:40;97574.22;;;17.88;56.01
967;BME280;56108;48.730;9.304;2023-03-19T09:57:50;97594.56;;;19.83;50.32
967;BME280;56108;48.730;9.304;2023-03-19T09:59:59;97599.66;;;19.86;49.60
967;BME280;56108;48.730;9.304;2023-03-19T10:05:00;97618.97;;;22.39;43.88
967;BME280;56108;48.730;9.304;2023-03-19T10:07:23;97607.56;;;20.62;46.62
967;BME280;56108;48.730;9.304;2023-03-19T10:09:40;97614.13;;;21.64;44.14
967;BME280;56108;48.730;9.304;2023-03-19T10:12:00;97622.88;;;22.13;41.97
967;BME280;56108;48.730;9.304;2023-03-19T10:14:32;97612.22;;;21.73;42.41
967;BME280;56108;48.730;9.304;2023-03-19T10:16:45;97615.56;;;21.27;41.94
967;BME280;56108;48.730;9.304;2023-03-19T10:19:03;97596.19;;;20.67;44.93
967;BME280;56108;48.730;9.304;2023-03-19T10:21:14;97602.06;;;21.03;42.85
967;BME280;56108;48.730;9.304;2023-03-19T10:23:31;97592.38;;;18.84;44.57
967;BME280;56108;48.730;9.304;2023-03-19T10:25:41;97595.69;;;18.95;45.84
967;BME280;56108;48.730;9.304;2023-03-19T10:27:55;97579.69;;;18.58;47.67
967;BME280;56108;48.730;9.304;2023-03-19T10:30:12;97569.59;;;19.04;49.25
967;BME280;56108;48.730;9.304;2023-03-19T10:32:30;97571.53;;;20.21;46.21
967;BME280;56108;48.730;9.304;2023-03-19T10:34:45;97591.72;;;19.50;42.70
967;BME280;56108;48.730;9.304;2023-03-19T10:36:58;97596.56;;;19.72;42.17
967;BME280;56108;48.730;9.304;2023-03-19T10:39:07;97591.41;;;19.53;43.27
967;BME280;56108;48.730;9.304;2023-03-19T10:41:23;97582.59;;;19.09;44.95
967;BME280;56108;48.730;9.304;2023-03-19T10:43:36;97572.91;;;18.10;45.18
967;BME280;56108;48.730;9.304;2023-03-19T10:45:46;97564.78;;;18.02;46.81
967;BME280;56108;48.730;9.304;2023-03-19T10:47:56;97551.94;;;18.84;47.25
967;BME280;56108;48.730;9.304;2023-03-19T10:50:14;97562.69;;;19.10;46.77
967;BME280;56108;48.730;9.304;2023-03-19T10:52:26;97576.00;;;19.88;42.69
967;BME280;56108;48.730;9.304;2023-03-19T10:54:39;97595.66;;;20.22;40.10
967;BME280;56108;48.730;9.304;2023-03-19T10:56:47;97584.59;;;19.75;43.09
967;BME280;56108;48.730;9.304;2023-03-19T10:59:02;97582.25;;;19.38;41.76
967;BME280;56108;48.730;9.304;2023-03-19T11:01:11;97564.31;;;18.94;44.23
967;BME280;56108;48.730;9.304;2023-03-19T11:03:30;97572.38;;;18.24;43.71
967;BME280;56108;48.730;9.304;2023-03-19T11:05:41;97559.28;;;18.30;45.87
967;BME280;56108;48.730;9.304;2023-03-19T11:07:54;97557.28;;;18.14;44.77
967;BME280;56108;48.730;9.304;2023-03-19T11:10:05;97553.44;;;17.98;46.05
967;BME280;56108;48.730;9.304;2023-03-19T11:12:23;97558.22;;;17.87;45.25
967;BME280;56108;48.730;9.304;2023-03-19T11:14:37;97546.47;;;18.32;45.57
967;BME280;56108;48.730;9.304;2023-03-19T11:16:50;97553.41;;;19.04;45.12
967;BME280;56108;48.730;9.304;2023-03-19T11:19:01;97555.09;;;19.05;45.47
967;BME280;56108;48.730;9.304;2023-03-19T11:21:21;97558.59;;;18.97;43.83
967;BME280;56108;48.730;9.304;2023-03-19T11:23:37;97557.75;;;18.53;44.79
967;BME280;56108;48.730;9.304;2023-03-19T11:25:48;97554.25;;;18.78;44.72
967;BME280;56108;48.730;9.304;2023-03-19T11:27:58;97549.97;;;18.94;45.20
967;BME280;56108;48.730;9.304;2023-03-19T11:30:16;97553.28;;;19.14;45.38
967;BME280;56108;48.730;9.304;2023-03-19T11:32:37;97540.16;;;19.19;44.90
967;BME280;56108;48.730;9.304;2023-03-19T11:34:51;97550.88;;;18.76;43.79
967;BME280;56108;48.730;9.304;2023-03-19T11:37:08;97546.50;;;18.75;43.44
967;BME280;56108;48.730;9.304;2023-03-19T11:39:27;97553.63;;;18.59;42.31
967;BME280;56108;48.730;9.304;2023-03-19T11:41:48;97551.91;;;18.58;42.52
967;BME280;56108;48.730;9.304;2023-03-19T11:44:04;97555.22;;;18.95;43.74
967;BME280;56108;48.730;9.304;2023-03-19T11:46:24;97549.84;;;18.95;43.16
967;BME280;56108;48.730;9.304;2023-03-19T11:48:44;97551.66;;;18.95;42.87
967;BME280;56108;48.730;9.304;2023-03-19T11:50:57;97544.59;;;19.28;43.50
967;BME280;56108;48.730;9.304;2023-03-19T11:53:21;97547.84;;;19.40;42.01
967;BME280;56108;48.730;9.304;2023-03-19T11:55:40;97556.41;;;19.35;40.67
967;BME280;56108;48.730;9.304;2023-03-19T11:58:06;97551.31;;;19.24;40.43
967;BME280;56108;48.730;9.304;2023-03-19T12:00:26;97534.78;;;18.85;43.01